Thunder radar more information blitzortung!


Radar de pluja more information rain snow radar


Visita la nostra xarxa de llocs de meteo:

Template documentation
and downloads

And another site



No particular awareness of the weather is required.    There are no Weather-warnings

Pagina Historial Weather Underground text

Diari Resum January 14, 2016 Unitats:  Mètric    Imperial   Tant
« Previous Dia
SegĂźent Dia »
Diari Setmana Mensual Anual Personalitzada
  Maxima: Minima: Media:
Temperatura: 13.5 °C 8.1 °C 10.8 °C
Punt de rosada: 3.4 °C 1.2 °C 2.4 °C
Humitat: 68 % 46 % 57 %
Wind Speed: 27.8 km/h 0.0 km/h 6.3 km/h
RĂ fegues de vent: 27.8 km/h - -
Vent:- - SW
Pression baro: 1017.8 hPa 1011.7 hPa -
Precipitacions: 0.0 mm    
Historical Graphs
 
 
Dades de taula per January 14, 2016
Temps Temperatura Punt de rosada Pression baro Vent Wind Speed RĂ fegues de vent Humitat Rainfall Rate (Hourly)
11:03 12.4 °C 1.9 °C 1016.8 hPa SW 7.4 km/h 7.4 km/h 49 % 0.0 mm
11:08 12.5 °C 2.3 °C 1016.8 hPa South 7.4 km/h 7.4 km/h 50 % 0.0 mm
11:18 12.5 °C 2.3 °C 1016.8 hPa WSW 5.6 km/h 5.6 km/h 50 % 0.0 mm
11:23 12.5 °C 2.1 °C 1015.8 hPa WSW 7.4 km/h 7.4 km/h 49 % 0.0 mm
11:28 12.4 °C 1.9 °C 1015.8 hPa WSW 5.6 km/h 5.6 km/h 49 % 0.0 mm
11:33 12.4 °C 1.9 °C 1015.8 hPa WSW 4.7 km/h 4.7 km/h 49 % 0.0 mm
11:38 12.3 °C 1.9 °C 1016.8 hPa SW 6.9 km/h 6.9 km/h 49 % 0.0 mm
11:48 12.3 °C 1.6 °C 1016.8 hPa WSW 3.7 km/h 3.7 km/h 48 % 0.0 mm
11:53 12.3 °C 1.6 °C 1015.8 hPa WSW 5.6 km/h 5.6 km/h 48 % 0.0 mm
11:58 12.2 °C 1.5 °C 1015.8 hPa SSW 9.0 km/h 9.0 km/h 48 % 0.0 mm
12:03 12.2 °C 1.5 °C 1015.8 hPa WSW 5.6 km/h 5.6 km/h 48 % 0.0 mm
12:08 12.1 °C 1.4 °C 1015.8 hPa SW 7.4 km/h 7.4 km/h 48 % 0.0 mm
12:13 12.2 °C 1.5 °C 1015.8 hPa SSW 5.6 km/h 5.6 km/h 48 % 0.0 mm
12:23 12.2 °C 1.5 °C 1015.8 hPa SW 7.4 km/h 7.4 km/h 48 % 0.0 mm
12:28 12.2 °C 1.2 °C 1015.8 hPa ESE 6.1 km/h 6.1 km/h 47 % 0.0 mm
12:33 12.2 °C 1.5 °C 1015.8 hPa WSW 5.6 km/h 5.6 km/h 48 % 0.0 mm
12:38 12.3 °C 1.6 °C 1015.8 hPa West 4.7 km/h 4.7 km/h 48 % 0.0 mm
12:43 12.3 °C 1.6 °C 1015.8 hPa WSW 5.6 km/h 5.6 km/h 48 % 0.0 mm
12:53 12.5 °C 1.5 °C 1014.8 hPa WSW 7.4 km/h 7.4 km/h 47 % 0.0 mm
12:58 12.6 °C 1.6 °C 1014.8 hPa WSW 6.1 km/h 6.1 km/h 47 % 0.0 mm
13:03 12.7 °C 1.7 °C 1014.8 hPa WSW 13.0 km/h 13.0 km/h 47 % 0.0 mm
13:08 12.8 °C 1.4 °C 1014.8 hPa SW 6.4 km/h 6.4 km/h 46 % 0.0 mm
13:13 12.9 °C 1.6 °C 1014.8 hPa WSW 9.3 km/h 9.3 km/h 46 % 0.0 mm
13:18 13.1 °C 1.7 °C 1014.8 hPa WSW 9.3 km/h 9.3 km/h 46 % 0.0 mm
13:23 13.3 °C 2.2 °C 1014.8 hPa West 6.1 km/h 6.1 km/h 47 % 0.0 mm
13:28 13.4 °C 2.3 °C 1014.8 hPa NNW 9.3 km/h 9.3 km/h 47 % 0.0 mm
13:33 13.4 °C 2.0 °C 1014.8 hPa WSW 7.9 km/h 7.9 km/h 46 % 0.0 mm
13:43 13.5 °C 2.1 °C 1013.8 hPa West 10.0 km/h 11.1 km/h 46 % 0.0 mm
13:48 13.4 °C 2.3 °C 1013.8 hPa WSW 9.5 km/h 9.5 km/h 47 % 0.0 mm
13:53 13.3 °C 2.2 °C 1013.8 hPa NW 9.7 km/h 9.7 km/h 47 % 0.0 mm
13:58 13.3 °C 2.2 °C 1013.8 hPa WSW 6.1 km/h 6.4 km/h 47 % 0.0 mm
14:03 13.3 °C 2.5 °C 1013.8 hPa NW 7.4 km/h 7.4 km/h 48 % 0.0 mm
14:08 13.3 °C 2.5 °C 1013.8 hPa WNW 7.4 km/h 7.4 km/h 48 % 0.0 mm
14:14 13.2 °C 2.4 °C 1013.8 hPa West 9.5 km/h 9.5 km/h 48 % 0.0 mm
14:19 13.0 °C 2.5 °C 1013.8 hPa WSW 11.1 km/h 11.1 km/h 49 % 0.0 mm
14:24 12.9 °C 2.4 °C 1013.8 hPa NNW 11.1 km/h 11.1 km/h 49 % 0.0 mm
14:29 12.7 °C 2.2 °C 1013.8 hPa South 3.7 km/h 6.9 km/h 49 % 0.0 mm
14:34 12.5 °C 2.1 °C 1013.8 hPa West 11.1 km/h 11.1 km/h 49 % 0.0 mm
14:39 12.4 °C 1.9 °C 1013.8 hPa SW 9.3 km/h 9.3 km/h 49 % 0.0 mm
14:44 12.3 °C 1.9 °C 1013.8 hPa NW 9.3 km/h 9.3 km/h 49 % 0.0 mm
14:49 12.2 °C 2.1 °C 1013.8 hPa SW 9.3 km/h 9.3 km/h 50 % 0.0 mm
14:54 12.3 °C 2.2 °C 1013.8 hPa NW 9.3 km/h 9.3 km/h 50 % 0.0 mm
14:59 12.3 °C 2.2 °C 1013.8 hPa SW 14.8 km/h 14.8 km/h 50 % 0.0 mm
15:04 12.3 °C 2.2 °C 1013.8 hPa WSW 14.8 km/h 14.8 km/h 50 % 0.0 mm
15:09 12.3 °C 2.4 °C 1013.8 hPa WSW 9.3 km/h 9.3 km/h 51 % 0.0 mm
15:14 12.3 °C 2.4 °C 1013.8 hPa WSW 20.4 km/h 20.4 km/h 51 % 0.0 mm
15:19 12.3 °C 2.4 °C 1013.8 hPa West 9.3 km/h 9.3 km/h 51 % 0.0 mm
15:24 12.3 °C 2.4 °C 1012.8 hPa WSW 27.8 km/h 27.8 km/h 51 % 0.0 mm
15:29 12.3 °C 2.4 °C 1012.8 hPa WSW 10.3 km/h 10.3 km/h 51 % 0.0 mm
15:39 12.3 °C 2.4 °C 1012.8 hPa SSW 5.6 km/h 5.6 km/h 51 % 0.0 mm
15:44 12.3 °C 2.4 °C 1012.8 hPa WSW 5.6 km/h 6.4 km/h 51 % 0.0 mm
15:49 12.2 °C 2.3 °C 1012.8 hPa SW 14.8 km/h 14.8 km/h 51 % 0.0 mm
15:54 12.2 °C 2.6 °C 1011.7 hPa North 9.3 km/h 9.3 km/h 52 % 0.0 mm
15:59 12.1 °C 2.6 °C 1011.7 hPa WNW 9.3 km/h 9.3 km/h 52 % 0.0 mm
16:04 12.1 °C 2.6 °C 1011.7 hPa ESE 7.4 km/h 7.4 km/h 52 % 0.0 mm
16:14 12.1 °C 2.6 °C 1012.8 hPa West 10.8 km/h 10.8 km/h 52 % 0.0 mm
16:19 12.1 °C 2.8 °C 1012.8 hPa WSW 13.0 km/h 13.0 km/h 53 % 0.0 mm
16:24 12.1 °C 2.8 °C 1013.8 hPa WSW 11.1 km/h 11.1 km/h 53 % 0.0 mm
16:29 12.1 °C 2.8 °C 1013.8 hPa West 6.9 km/h 6.9 km/h 53 % 0.0 mm
16:34 12.1 °C 2.8 °C 1013.8 hPa WSW 13.0 km/h 13.0 km/h 53 % 0.0 mm
16:39 12.1 °C 3.1 °C 1013.8 hPa WNW 12.6 km/h 12.6 km/h 54 % 0.0 mm
16:44 12.1 °C 3.1 °C 1013.8 hPa WSW 11.9 km/h 11.9 km/h 54 % 0.0 mm
16:54 12.0 °C 3.2 °C 1013.8 hPa WNW 14.8 km/h 14.8 km/h 55 % 0.0 mm
16:59 12.1 °C 3.1 °C 1013.8 hPa WSW 7.4 km/h 7.4 km/h 54 % 0.0 mm
17:04 12.1 °C 3.3 °C 1013.8 hPa SW 13.0 km/h 13.0 km/h 55 % 0.0 mm
17:09 12.2 °C 3.4 °C 1013.8 hPa North 9.3 km/h 9.3 km/h 55 % 0.0 mm
17:14 12.2 °C 3.4 °C 1013.8 hPa NNW 4.7 km/h 4.7 km/h 55 % 0.0 mm
17:19 12.0 °C 3.2 °C 1013.8 hPa NNW 4.2 km/h 4.2 km/h 55 % 0.0 mm
17:29 12.0 °C 3.2 °C 1013.8 hPa NNE 9.5 km/h 9.5 km/h 55 % 0.0 mm
17:34 11.6 °C 3.1 °C 1013.8 hPa NNW 7.4 km/h 7.4 km/h 56 % 0.0 mm
17:39 11.3 °C 2.8 °C 1013.8 hPa WNW 3.7 km/h 3.7 km/h 56 % 0.0 mm
17:44 11.1 °C 2.7 °C 1013.8 hPa NW 3.7 km/h 3.7 km/h 56 % 0.0 mm
17:49 11.0 °C 2.8 °C 1013.8 hPa West 9.3 km/h 9.3 km/h 57 % 0.0 mm
17:54 10.8 °C 2.6 °C 1014.8 hPa WSW 9.3 km/h 9.3 km/h 57 % 0.0 mm
17:59 10.8 °C 2.6 °C 1014.8 hPa WSW 11.1 km/h 11.1 km/h 57 % 0.0 mm
18:04 10.6 °C 2.7 °C 1014.8 hPa WSW 7.4 km/h 7.4 km/h 58 % 0.0 mm
18:09 10.6 °C 2.9 °C 1014.8 hPa NW 14.8 km/h 14.8 km/h 59 % 0.0 mm
18:14 10.6 °C 3.2 °C 1014.8 hPa NW 3.7 km/h   60 % 0.0 mm
18:19 10.4 °C 2.9 °C 1014.8 hPa ENE 3.7 km/h 4.2 km/h 60 % 0.0 mm
18:24 10.3 °C 2.9 °C 1014.8 hPa NW 5.6 km/h 5.6 km/h 60 % 0.0 mm
18:29 10.2 °C 2.6 °C 1014.8 hPa SSW 3.7 km/h 3.7 km/h 59 % 0.0 mm
18:34 10.1 °C 2.4 °C 1014.8 hPa SW 13.7 km/h 13.7 km/h 59 % 0.0 mm
18:39 10.1 °C 2.9 °C 1015.8 hPa WNW 7.4 km/h 7.4 km/h 61 % 0.0 mm
18:44 10.0 °C 2.8 °C 1015.8 hPa NNW 3.7 km/h 3.7 km/h 61 % 0.0 mm
18:49 10.0 °C 2.8 °C 1015.8 hPa WSW 7.4 km/h 7.4 km/h 61 % 0.0 mm
18:54 10.0 °C 2.8 °C 1015.8 hPa West 9.3 km/h 9.3 km/h 61 % 0.0 mm
18:59 9.8 °C 2.8 °C 1015.8 hPa West 5.0 km/h 5.0 km/h 62 % 0.0 mm
19:04 9.8 °C 2.8 °C 1015.8 hPa West 3.9 km/h 3.9 km/h 62 % 0.0 mm
19:09 9.7 °C 2.8 °C 1015.8 hPa WSW 4.2 km/h 4.2 km/h 62 % 0.0 mm
19:14 9.7 °C 2.8 °C 1015.8 hPa SSE 1.9 km/h   62 % 0.0 mm
19:19 9.6 °C 2.9 °C 1015.8 hPa NW 1.9 km/h   63 % 0.0 mm
19:24 9.5 °C 2.6 °C 1015.8 hPa WSW 3.7 km/h 3.7 km/h 62 % 0.0 mm
19:29 9.5 °C 2.6 °C 1015.8 hPa West 1.9 km/h 1.9 km/h 62 % 0.0 mm
19:34 9.4 °C 2.7 °C 1015.8 hPa WSW 1.9 km/h 1.9 km/h 63 % 0.0 mm
19:39 9.4 °C 2.5 °C 1016.8 hPa WSW 4.7 km/h 4.7 km/h 62 % 0.0 mm
19:44 9.4 °C 2.7 °C 1016.8 hPa WSW 5.6 km/h 5.6 km/h 63 % 0.0 mm
19:49 9.4 °C 2.7 °C 1016.8 hPa West 3.7 km/h 3.7 km/h 63 % 0.0 mm
19:54 9.3 °C 2.8 °C 1015.8 hPa WSW 3.7 km/h   64 % 0.0 mm
19:59 9.2 °C 2.7 °C 1015.8 hPa NNE 1.9 km/h   64 % 0.0 mm
20:04 9.1 °C 2.4 °C 1015.8 hPa West 3.7 km/h 3.7 km/h 63 % 0.0 mm
20:09 9.0 °C 2.6 °C 1015.8 hPa WNW 1.9 km/h 1.9 km/h 64 % 0.0 mm
20:14 8.9 °C 2.4 °C 1015.8 hPa ESE 1.9 km/h   64 % 0.0 mm
20:19 8.8 °C 2.6 °C 1015.8 hPa Calm     65 % 0.0 mm
20:24 8.7 °C 2.5 °C 1016.8 hPa Calm     65 % 0.0 mm
20:29 8.6 °C 2.4 °C 1016.8 hPa NE 2.3 km/h 2.3 km/h 65 % 0.0 mm
20:34 8.6 °C 2.4 °C 1016.8 hPa ENE 1.9 km/h 2.3 km/h 65 % 0.0 mm
20:39 8.6 °C 2.4 °C 1017.8 hPa NE 2.6 km/h 2.6 km/h 65 % 0.0 mm
20:44 8.5 °C 2.3 °C 1017.8 hPa NE 1.9 km/h   65 % 0.0 mm
20:49 8.5 °C 2.3 °C 1017.8 hPa ENE 1.9 km/h   65 % 0.0 mm
20:54 8.5 °C 2.3 °C 1017.8 hPa Calm     65 % 0.0 mm
20:59 8.4 °C 2.0 °C 1017.8 hPa SSE 1.9 km/h 2.3 km/h 64 % 0.0 mm
21:04 8.3 °C 1.9 °C 1017.8 hPa Calm     64 % 0.0 mm
21:09 8.2 °C 1.8 °C 1017.8 hPa Calm     64 % 0.0 mm
21:14 8.2 °C 2.0 °C 1017.8 hPa Calm     65 % 0.0 mm
21:19 8.2 °C 2.0 °C 1017.8 hPa SW 3.7 km/h 3.7 km/h 65 % 0.0 mm
21:24 8.1 °C 1.9 °C 1017.8 hPa Calm     65 % 0.0 mm
21:29 8.1 °C 1.9 °C 1017.8 hPa SW 1.9 km/h   65 % 0.0 mm
21:34 8.1 °C 2.1 °C 1017.8 hPa SW 1.9 km/h   66 % 0.0 mm
21:39 8.1 °C 1.9 °C 1017.8 hPa WNW 2.3 km/h   65 % 0.0 mm
21:49 8.2 °C 2.2 °C 1017.8 hPa SW 2.3 km/h 2.3 km/h 66 % 0.0 mm
21:54 8.2 °C 2.2 °C 1017.8 hPa NNE 3.7 km/h 3.7 km/h 66 % 0.0 mm
21:59 8.3 °C 2.3 °C 1017.8 hPa Calm     66 % 0.0 mm
22:04 8.2 °C 2.0 °C 1017.8 hPa WSW 3.7 km/h 3.7 km/h 65 % 0.0 mm
22:09 8.2 °C 2.2 °C 1017.8 hPa Calm     66 % 0.0 mm
22:14 8.2 °C 2.2 °C 1017.8 hPa Calm     66 % 0.0 mm
22:19 8.2 °C 2.0 °C 1017.8 hPa SW 3.7 km/h 3.7 km/h 65 % 0.0 mm
22:24 8.1 °C 2.1 °C 1017.8 hPa WSW 3.7 km/h 3.7 km/h 66 % 0.0 mm
22:29 8.3 °C 2.3 °C 1017.8 hPa WSW 3.7 km/h 3.7 km/h 66 % 0.0 mm
22:34 8.4 °C 2.4 °C 1017.8 hPa SW 3.7 km/h 3.7 km/h 66 % 0.0 mm
22:39 8.3 °C 2.5 °C 1017.8 hPa WSW 3.7 km/h 3.7 km/h 67 % 0.0 mm
22:44 8.4 °C 2.6 °C 1017.8 hPa WSW 3.7 km/h 3.7 km/h 67 % 0.0 mm
22:49 8.4 °C 2.6 °C 1017.8 hPa WSW 3.7 km/h 3.7 km/h 67 % 0.0 mm
22:54 8.4 °C 2.6 °C 1017.8 hPa SW 3.9 km/h 3.9 km/h 67 % 0.0 mm
22:59 8.4 °C 2.6 °C 1017.8 hPa WSW 3.7 km/h 3.7 km/h 67 % 0.0 mm
23:04 8.4 °C 2.6 °C 1017.8 hPa WSW 1.9 km/h 1.9 km/h 67 % 0.0 mm
23:09 8.6 °C 2.8 °C 1017.8 hPa WSW 2.6 km/h 2.6 km/h 67 % 0.0 mm
23:14 8.7 °C 2.9 °C 1017.8 hPa WSW 2.6 km/h 2.6 km/h 67 % 0.0 mm
23:19 8.7 °C 2.9 °C 1017.8 hPa WSW 1.9 km/h 1.9 km/h 67 % 0.0 mm
23:24 8.7 °C 2.9 °C 1017.8 hPa WSW 3.7 km/h 3.7 km/h 67 % 0.0 mm
23:29 8.7 °C 3.1 °C 1017.8 hPa Calm     68 % 0.0 mm
Meteo Sesrovires
Elogis d' Weather Underground - 3.25 mb

Guio original per  Jim McMurry - jmcmurry@mwt.net Adaptat per a la plantilla per  Wim van der Kuil - Leuven-Template.eu

Trobareu la nostra informacio del temps tambe a:

Weather Underground

AWEKAS